sensor_id;sensor_type;location;lat;lon;timestamp;temperature;humidity
1079;DHT22;528;47.872;11.478;2022-09-01T00:01:52;16.90;99.90
1079;DHT22;528;47.872;11.478;2022-09-01T00:04:21;16.90;99.90
1079;DHT22;528;47.872;11.478;2022-09-01T00:06:50;16.90;99.90
1079;DHT22;528;47.872;11.478;2022-09-01T00:09:22;16.90;99.90
1079;DHT22;528;47.872;11.478;2022-09-01T00:11:52;16.90;99.90
1079;DHT22;528;47.872;11.478;2022-09-01T00:14:21;16.90;99.90
1079;DHT22;528;47.872;11.478;2022-09-01T00:16:49;16.90;99.90
1079;DHT22;528;47.872;11.478;2022-09-01T00:19:16;16.90;99.90
1079;DHT22;528;47.872;11.478;2022-09-01T00:21:45;16.90;99.90
1079;DHT22;528;47.872;11.478;2022-09-01T00:24:14;16.90;99.90
1079;DHT22;528;47.872;11.478;2022-09-01T00:26:44;16.90;99.90
1079;DHT22;528;47.872;11.478;2022-09-01T00:29:12;16.90;99.90
1079;DHT22;528;47.872;11.478;2022-09-01T00:31:40;17.00;99.90
1079;DHT22;528;47.872;11.478;2022-09-01T00:34:08;17.00;99.90
1079;DHT22;528;47.872;11.478;2022-09-01T00:36:35;17.00;99.90
1079;DHT22;528;47.872;11.478;2022-09-01T00:39:04;16.90;99.90
1079;DHT22;528;47.872;11.478;2022-09-01T00:41:34;17.00;99.90
1079;DHT22;528;47.872;11.478;2022-09-01T00:44:07;17.00;99.90
1079;DHT22;528;47.872;11.478;2022-09-01T00:46:38;17.00;99.90
1079;DHT22;528;47.872;11.478;2022-09-01T00:49:09;17.00;99.90
1079;DHT22;528;47.872;11.478;2022-09-01T00:51:38;17.00;99.90
1079;DHT22;528;47.872;11.478;2022-09-01T00:54:08;17.00;99.90
1079;DHT22;528;47.872;11.478;2022-09-01T00:56:38;17.00;99.90
1079;DHT22;528;47.872;11.478;2022-09-01T00:59:09;17.00;99.90
1079;DHT22;528;47.872;11.478;2022-09-01T01:01:38;17.00;99.90
1079;DHT22;528;47.872;11.478;2022-09-01T01:04:07;17.00;99.90
1079;DHT22;528;47.872;11.478;2022-09-01T01:06:40;17.00;99.90
1079;DHT22;528;47.872;11.478;2022-09-01T01:09:08;16.90;99.90
1079;DHT22;528;47.872;11.478;2022-09-01T01:11:36;16.90;99.90
1079;DHT22;528;47.872;11.478;2022-09-01T01:14:07;16.90;99.90
1079;DHT22;528;47.872;11.478;2022-09-01T01:16:38;16.90;99.90
1079;DHT22;528;47.872;11.478;2022-09-01T01:19:12;16.90;99.90
1079;DHT22;528;47.872;11.478;2022-09-01T01:22:07;16.90;99.90
1079;DHT22;528;47.872;11.478;2022-09-01T01:24:55;16.90;99.90
1079;DHT22;528;47.872;11.478;2022-09-01T01:27:23;16.90;99.90
1079;DHT22;528;47.872;11.478;2022-09-01T01:29:50;16.90;99.90
1079;DHT22;528;47.872;11.478;2022-09-01T01:32:18;16.90;99.90
1079;DHT22;528;47.872;11.478;2022-09-01T01:34:45;16.90;99.90
1079;DHT22;528;47.872;11.478;2022-09-01T01:37:18;16.80;99.90
1079;DHT22;528;47.872;11.478;2022-09-01T01:39:48;16.80;99.90
1079;DHT22;528;47.872;11.478;2022-09-01T01:42:19;16.80;99.90
1079;DHT22;528;47.872;11.478;2022-09-01T01:44:48;16.80;99.90
1079;DHT22;528;47.872;11.478;2022-09-01T01:47:18;16.80;99.90
1079;DHT22;528;47.872;11.478;2022-09-01T01:49:46;16.80;99.90
1079;DHT22;528;47.872;11.478;2022-09-01T01:52:14;16.80;99.90
1079;DHT22;528;47.872;11.478;2022-09-01T01:54:42;16.80;99.90
1079;DHT22;528;47.872;11.478;2022-09-01T01:57:12;16.80;99.90
1079;DHT22;528;47.872;11.478;2022-09-01T01:59:44;16.80;99.90
1079;DHT22;528;47.872;11.478;2022-09-01T02:02:12;16.80;99.90
1079;DHT22;528;47.872;11.478;2022-09-01T02:04:39;16.80;99.90
1079;DHT22;528;47.872;11.478;2022-09-01T02:07:10;16.80;99.90
1079;DHT22;528;47.872;11.478;2022-09-01T02:09:38;16.80;99.90
1079;DHT22;528;47.872;11.478;2022-09-01T02:12:08;16.80;99.90
1079;DHT22;528;47.872;11.478;2022-09-01T02:14:36;16.80;99.90
1079;DHT22;528;47.872;11.478;2022-09-01T02:17:05;16.80;99.90
1079;DHT22;528;47.872;11.478;2022-09-01T02:19:33;16.80;99.90
1079;DHT22;528;47.872;11.478;2022-09-01T02:22:05;16.80;99.90
1079;DHT22;528;47.872;11.478;2022-09-01T02:24:36;16.80;99.90
1079;DHT22;528;47.872;11.478;2022-09-01T02:27:06;16.70;99.90
1079;DHT22;528;47.872;11.478;2022-09-01T02:29:34;16.70;99.90
1079;DHT22;528;47.872;11.478;2022-09-01T02:32:02;16.70;99.90
1079;DHT22;528;47.872;11.478;2022-09-01T02:34:31;16.70;99.90
1079;DHT22;528;47.872;11.478;2022-09-01T02:36:59;16.70;99.90
1079;DHT22;528;47.872;11.478;2022-09-01T02:39:30;16.60;99.90
1079;DHT22;528;47.872;11.478;2022-09-01T02:41:58;16.60;99.90
1079;DHT22;528;47.872;11.478;2022-09-01T02:44:28;16.50;99.90
1079;DHT22;528;47.872;11.478;2022-09-01T02:46:57;16.60;99.90
1079;DHT22;528;47.872;11.478;2022-09-01T02:49:28;16.60;99.90
1079;DHT22;528;47.872;11.478;2022-09-01T02:52:00;16.60;99.90
1079;DHT22;528;47.872;11.478;2022-09-01T02:54:30;16.60;99.90
1079;DHT22;528;47.872;11.478;2022-09-01T02:56:58;16.50;99.90
1079;DHT22;528;47.872;11.478;2022-09-01T02:59:27;16.50;99.90
1079;DHT22;528;47.872;11.478;2022-09-01T03:01:55;16.40;99.90
1079;DHT22;528;47.872;11.478;2022-09-01T03:04:23;16.40;99.90
1079;DHT22;528;47.872;11.478;2022-09-01T03:06:51;16.40;99.90
1079;DHT22;528;47.872;11.478;2022-09-01T03:09:21;16.40;99.90
1079;DHT22;528;47.872;11.478;2022-09-01T03:11:50;16.40;99.90
1079;DHT22;528;47.872;11.478;2022-09-01T03:14:19;16.40;99.90
1079;DHT22;528;47.872;11.478;2022-09-01T03:16:46;16.40;99.90
1079;DHT22;528;47.872;11.478;2022-09-01T03:19:14;16.40;99.90
1079;DHT22;528;47.872;11.478;2022-09-01T03:21:45;16.40;99.90
1079;DHT22;528;47.872;11.478;2022-09-01T03:24:16;16.40;99.90
1079;DHT22;528;47.872;11.478;2022-09-01T03:26:46;16.40;99.90
1079;DHT22;528;47.872;11.478;2022-09-01T03:29:14;16.30;99.90
1079;DHT22;528;47.872;11.478;2022-09-01T03:31:41;16.30;99.90
1079;DHT22;528;47.872;11.478;2022-09-01T03:34:09;16.30;99.90
1079;DHT22;528;47.872;11.478;2022-09-01T03:36:37;16.30;99.90
1079;DHT22;528;47.872;11.478;2022-09-01T03:39:05;16.30;99.90
1079;DHT22;528;47.872;11.478;2022-09-01T03:41:34;16.30;99.90
1079;DHT22;528;47.872;11.478;2022-09-01T03:44:05;16.30;99.90
1079;DHT22;528;47.872;11.478;2022-09-01T03:46:35;16.30;99.90
1079;DHT22;528;47.872;11.478;2022-09-01T03:49:02;16.30;99.90
1079;DHT22;528;47.872;11.478;2022-09-01T03:51:32;16.20;99.90
1079;DHT22;528;47.872;11.478;2022-09-01T03:53:59;16.20;99.90
1079;DHT22;528;47.872;11.478;2022-09-01T03:56:27;16.20;99.90
1079;DHT22;528;47.872;11.478;2022-09-01T03:58:56;16.20;99.90
1079;DHT22;528;47.872;11.478;2022-09-01T04:01:27;16.20;99.90
1079;DHT22;528;47.872;11.478;2022-09-01T04:03:56;16.20;99.90
1079;DHT22;528;47.872;11.478;2022-09-01T04:06:23;16.20;99.90
1079;DHT22;528;47.872;11.478;2022-09-01T04:08:51;16.10;99.90
1079;DHT22;528;47.872;11.478;2022-09-01T04:11:27;16.20;99.90
1079;DHT22;528;47.872;11.478;2022-09-01T04:13:55;16.10;99.90
1079;DHT22;528;47.872;11.478;2022-09-01T04:16:25;16.10;99.90
1079;DHT22;528;47.872;11.478;2022-09-01T04:19:11;16.10;99.90
1079;DHT22;528;47.872;11.478;2022-09-01T04:21:47;16.00;99.90
1079;DHT22;528;47.872;11.478;2022-09-01T04:24:15;16.00;99.90
1079;DHT22;528;47.872;11.478;2022-09-01T04:26:44;16.00;99.90
1079;DHT22;528;47.872;11.478;2022-09-01T04:29:16;15.90;99.90
1079;DHT22;528;47.872;11.478;2022-09-01T04:31:50;15.90;99.90
1079;DHT22;528;47.872;11.478;2022-09-01T04:34:18;15.90;99.90
1079;DHT22;528;47.872;11.478;2022-09-01T04:36:47;15.90;99.90
1079;DHT22;528;47.872;11.478;2022-09-01T04:39:19;15.90;99.90
1079;DHT22;528;47.872;11.478;2022-09-01T04:41:46;15.80;99.90
1079;DHT22;528;47.872;11.478;2022-09-01T04:44:15;15.80;99.90
1079;DHT22;528;47.872;11.478;2022-09-01T04:46:45;15.80;99.90
1079;DHT22;528;47.872;11.478;2022-09-01T04:49:18;15.80;99.90
1079;DHT22;528;47.872;11.478;2022-09-01T04:51:49;15.80;99.90
1079;DHT22;528;47.872;11.478;2022-09-01T04:54:18;15.70;99.90
1079;DHT22;528;47.872;11.478;2022-09-01T04:56:48;15.70;99.90
1079;DHT22;528;47.872;11.478;2022-09-01T04:59:19;15.70;99.90
1079;DHT22;528;47.872;11.478;2022-09-01T05:01:48;15.70;99.90
1079;DHT22;528;47.872;11.478;2022-09-01T05:04:23;15.80;99.90
1079;DHT22;528;47.872;11.478;2022-09-01T05:06:53;15.80;99.90
1079;DHT22;528;47.872;11.478;2022-09-01T05:09:22;15.80;99.90
1079;DHT22;528;47.872;11.478;2022-09-01T05:11:50;15.80;99.90
1079;DHT22;528;47.872;11.478;2022-09-01T05:14:18;15.70;99.90
1079;DHT22;528;47.872;11.478;2022-09-01T05:16:47;15.70;99.90
1079;DHT22;528;47.872;11.478;2022-09-01T05:19:17;15.80;99.90
1079;DHT22;528;47.872;11.478;2022-09-01T05:21:47;15.80;99.90
1079;DHT22;528;47.872;11.478;2022-09-01T05:24:16;15.80;99.90
1079;DHT22;528;47.872;11.478;2022-09-01T05:26:45;15.80;99.90
1079;DHT22;528;47.872;11.478;2022-09-01T05:29:14;15.90;99.90
1079;DHT22;528;47.872;11.478;2022-09-01T05:31:43;15.90;99.90
1079;DHT22;528;47.872;11.478;2022-09-01T05:34:12;15.90;99.90
1079;DHT22;528;47.872;11.478;2022-09-01T05:36:47;15.90;99.90
1079;DHT22;528;47.872;11.478;2022-09-01T05:39:15;15.90;99.90
1079;DHT22;528;47.872;11.478;2022-09-01T05:41:43;16.00;99.90
1079;DHT22;528;47.872;11.478;2022-09-01T05:44:11;15.90;99.90
1079;DHT22;528;47.872;11.478;2022-09-01T05:46:39;15.90;99.90
1079;DHT22;528;47.872;11.478;2022-09-01T05:49:08;15.90;99.90
1079;DHT22;528;47.872;11.478;2022-09-01T05:51:42;15.80;99.90
1079;DHT22;528;47.872;11.478;2022-09-01T05:54:15;15.90;99.90
1079;DHT22;528;47.872;11.478;2022-09-01T05:56:43;15.90;99.90
1079;DHT22;528;47.872;11.478;2022-09-01T05:59:11;15.90;99.90
1079;DHT22;528;47.872;11.478;2022-09-01T06:01:40;15.90;99.90
1079;DHT22;528;47.872;11.478;2022-09-01T06:04:09;15.90;99.90
1079;DHT22;528;47.872;11.478;2022-09-01T06:06:39;15.90;99.90
1079;DHT22;528;47.872;11.478;2022-09-01T06:09:12;15.90;99.90
1079;DHT22;528;47.872;11.478;2022-09-01T06:11:44;16.00;99.90
1079;DHT22;528;47.872;11.478;2022-09-01T06:14:11;16.00;99.90
1079;DHT22;528;47.872;11.478;2022-09-01T06:16:40;16.00;99.90
1079;DHT22;528;47.872;11.478;2022-09-01T06:19:08;16.10;99.90
1079;DHT22;528;47.872;11.478;2022-09-01T06:21:38;16.00;99.90
1079;DHT22;528;47.872;11.478;2022-09-01T06:24:06;16.00;99.90
1079;DHT22;528;47.872;11.478;2022-09-01T06:26:35;16.00;99.90
1079;DHT22;528;47.872;11.478;2022-09-01T06:29:12;16.00;99.90
1079;DHT22;528;47.872;11.478;2022-09-01T06:31:41;16.00;99.90
1079;DHT22;528;47.872;11.478;2022-09-01T06:34:17;16.10;99.90
1079;DHT22;528;47.872;11.478;2022-09-01T06:36:45;16.10;99.90
1079;DHT22;528;47.872;11.478;2022-09-01T06:39:13;16.20;99.90
1079;DHT22;528;47.872;11.478;2022-09-01T06:41:44;16.10;99.90
1079;DHT22;528;47.872;11.478;2022-09-01T06:44:14;16.20;99.90
1079;DHT22;528;47.872;11.478;2022-09-01T06:46:47;16.20;99.90
1079;DHT22;528;47.872;11.478;2022-09-01T06:49:14;16.30;99.90
1079;DHT22;528;47.872;11.478;2022-09-01T06:51:41;16.40;99.90
1079;DHT22;528;47.872;11.478;2022-09-01T06:54:09;16.50;99.90
1079;DHT22;528;47.872;11.478;2022-09-01T06:56:39;16.60;99.90
1079;DHT22;528;47.872;11.478;2022-09-01T06:59:06;16.60;99.90
1079;DHT22;528;47.872;11.478;2022-09-01T07:01:36;16.60;99.90
1079;DHT22;528;47.872;11.478;2022-09-01T07:04:03;16.70;99.90
1079;DHT22;528;47.872;11.478;2022-09-01T07:06:32;16.70;99.90
1079;DHT22;528;47.872;11.478;2022-09-01T07:09:04;16.70;99.90
1079;DHT22;528;47.872;11.478;2022-09-01T07:11:33;16.70;99.90
1079;DHT22;528;47.872;11.478;2022-09-01T07:14:02;16.70;99.90
1079;DHT22;528;47.872;11.478;2022-09-01T07:16:32;16.70;99.90
1079;DHT22;528;47.872;11.478;2022-09-01T07:19:10;16.70;99.90
1079;DHT22;528;47.872;11.478;2022-09-01T07:21:43;16.70;99.90
1079;DHT22;528;47.872;11.478;2022-09-01T07:24:11;16.70;99.90
1079;DHT22;528;47.872;11.478;2022-09-01T07:26:43;16.70;99.90
1079;DHT22;528;47.872;11.478;2022-09-01T07:29:17;16.60;99.90
1079;DHT22;528;47.872;11.478;2022-09-01T07:31:47;16.60;99.90
1079;DHT22;528;47.872;11.478;2022-09-01T07:34:16;16.60;99.90
1079;DHT22;528;47.872;11.478;2022-09-01T07:36:44;16.50;99.90
1079;DHT22;528;47.872;11.478;2022-09-01T07:39:12;16.60;99.90
1079;DHT22;528;47.872;11.478;2022-09-01T07:41:40;16.70;99.90
1079;DHT22;528;47.872;11.478;2022-09-01T07:44:09;16.70;99.90
1079;DHT22;528;47.872;11.478;2022-09-01T07:46:38;16.80;99.90
1079;DHT22;528;47.872;11.478;2022-09-01T07:49:06;16.80;99.90
1079;DHT22;528;47.872;11.478;2022-09-01T07:51:37;16.90;99.90
1079;DHT22;528;47.872;11.478;2022-09-01T07:54:05;16.90;99.90
1079;DHT22;528;47.872;11.478;2022-09-01T07:56:33;16.90;99.90
1079;DHT22;528;47.872;11.478;2022-09-01T07:59:02;17.00;99.90
1079;DHT22;528;47.872;11.478;2022-09-01T08:01:32;17.10;99.90
1079;DHT22;528;47.872;11.478;2022-09-01T08:04:01;17.10;99.90
1079;DHT22;528;47.872;11.478;2022-09-01T08:06:29;17.20;99.90
1079;DHT22;528;47.872;11.478;2022-09-01T08:08:58;17.30;99.90
1079;DHT22;528;47.872;11.478;2022-09-01T08:11:28;17.30;99.90
1079;DHT22;528;47.872;11.478;2022-09-01T08:13:56;17.40;99.90
1079;DHT22;528;47.872;11.478;2022-09-01T08:16:25;17.40;99.90
1079;DHT22;528;47.872;11.478;2022-09-01T08:18:52;17.40;99.90
1079;DHT22;528;47.872;11.478;2022-09-01T08:21:21;17.40;99.90
1079;DHT22;528;47.872;11.478;2022-09-01T08:23:50;17.50;99.90
1079;DHT22;528;47.872;11.478;2022-09-01T08:26:22;17.60;99.90
1079;DHT22;528;47.872;11.478;2022-09-01T08:28:55;17.50;99.90
1079;DHT22;528;47.872;11.478;2022-09-01T08:31:24;17.60;99.90
1079;DHT22;528;47.872;11.478;2022-09-01T08:33:52;17.80;99.90
1079;DHT22;528;47.872;11.478;2022-09-01T08:36:20;17.90;99.90
1079;DHT22;528;47.872;11.478;2022-09-01T08:38:47;18.10;99.90
1079;DHT22;528;47.872;11.478;2022-09-01T08:41:21;18.20;99.90
1079;DHT22;528;47.872;11.478;2022-09-01T08:44:00;18.30;99.90
1079;DHT22;528;47.872;11.478;2022-09-01T08:46:35;18.40;99.90
1079;DHT22;528;47.872;11.478;2022-09-01T08:49:08;18.40;99.90
1079;DHT22;528;47.872;11.478;2022-09-01T08:51:41;18.50;99.90
1079;DHT22;528;47.872;11.478;2022-09-01T08:54:18;18.40;99.90
1079;DHT22;528;47.872;11.478;2022-09-01T08:56:51;18.40;99.90
1079;DHT22;528;47.872;11.478;2022-09-01T08:59:25;18.40;99.90
1079;DHT22;528;47.872;11.478;2022-09-01T09:01:59;18.40;99.90
1079;DHT22;528;47.872;11.478;2022-09-01T09:04:43;18.40;99.90
1079;DHT22;528;47.872;11.478;2022-09-01T09:07:21;18.40;99.90
1079;DHT22;528;47.872;11.478;2022-09-01T09:09:55;18.50;99.90
1079;DHT22;528;47.872;11.478;2022-09-01T09:12:38;18.60;99.90
1079;DHT22;528;47.872;11.478;2022-09-01T09:15:14;18.70;99.90
1079;DHT22;528;47.872;11.478;2022-09-01T09:17:46;18.80;99.90
1079;DHT22;528;47.872;11.478;2022-09-01T09:20:18;18.90;99.90
1079;DHT22;528;47.872;11.478;2022-09-01T09:22:46;19.00;99.90
1079;DHT22;528;47.872;11.478;2022-09-01T09:25:16;19.10;99.90
1079;DHT22;528;47.872;11.478;2022-09-01T09:27:48;19.20;99.90
1079;DHT22;528;47.872;11.478;2022-09-01T09:30:20;19.30;99.90
1079;DHT22;528;47.872;11.478;2022-09-01T09:32:52;19.40;99.90
1079;DHT22;528;47.872;11.478;2022-09-01T09:35:25;19.40;99.90
1079;DHT22;528;47.872;11.478;2022-09-01T09:37:53;19.40;99.90
1079;DHT22;528;47.872;11.478;2022-09-01T09:40:24;19.40;99.90
1079;DHT22;528;47.872;11.478;2022-09-01T09:57:03;19.30;99.90
1079;DHT22;528;47.872;11.478;2022-09-01T09:59:36;19.30;99.90
1079;DHT22;528;47.872;11.478;2022-09-01T10:02:24;19.30;99.90
1079;DHT22;528;47.872;11.478;2022-09-01T10:04:59;19.30;99.90
1079;DHT22;528;47.872;11.478;2022-09-01T10:07:29;19.40;99.90
1079;DHT22;528;47.872;11.478;2022-09-01T10:10:03;19.50;99.90
1079;DHT22;528;47.872;11.478;2022-09-01T10:12:44;19.50;99.90
1079;DHT22;528;47.872;11.478;2022-09-01T10:15:11;19.60;99.90
1079;DHT22;528;47.872;11.478;2022-09-01T10:17:41;19.70;99.90
1079;DHT22;528;47.872;11.478;2022-09-01T10:20:13;19.80;99.90
1079;DHT22;528;47.872;11.478;2022-09-01T10:22:46;19.80;99.90
1079;DHT22;528;47.872;11.478;2022-09-01T10:25:18;19.90;99.90
1079;DHT22;528;47.872;11.478;2022-09-01T10:27:51;19.80;99.90
1079;DHT22;528;47.872;11.478;2022-09-01T10:30:25;19.90;99.90
1079;DHT22;528;47.872;11.478;2022-09-01T10:32:55;19.90;99.90
1079;DHT22;528;47.872;11.478;2022-09-01T10:46:43;19.90;99.90
1079;DHT22;528;47.872;11.478;2022-09-01T10:49:21;20.00;99.90
1079;DHT22;528;47.872;11.478;2022-09-01T10:51:48;20.00;99.90
1079;DHT22;528;47.872;11.478;2022-09-01T10:54:54;20.20;99.90
1079;DHT22;528;47.872;11.478;2022-09-01T10:57:42;20.30;99.90
1079;DHT22;528;47.872;11.478;2022-09-01T11:00:42;20.40;99.90
1079;DHT22;528;47.872;11.478;2022-09-01T11:06:58;20.50;99.90
1079;DHT22;528;47.872;11.478;2022-09-01T11:09:32;20.50;99.90
1079;DHT22;528;47.872;11.478;2022-09-01T11:14:55;20.60;99.90
1079;DHT22;528;47.872;11.478;2022-09-01T11:17:23;20.50;99.90
1079;DHT22;528;47.872;11.478;2022-09-01T11:20:02;20.60;99.90
1079;DHT22;528;47.872;11.478;2022-09-01T11:22:36;20.60;99.90
1079;DHT22;528;47.872;11.478;2022-09-01T11:31:29;20.60;99.90
1079;DHT22;528;47.872;11.478;2022-09-01T11:34:10;20.60;99.90
1079;DHT22;528;47.872;11.478;2022-09-01T11:36:55;20.60;99.90
1079;DHT22;528;47.872;11.478;2022-09-01T11:39:41;20.60;99.90
1079;DHT22;528;47.872;11.478;2022-09-01T11:42:15;20.60;99.90
1079;DHT22;528;47.872;11.478;2022-09-01T11:44:48;20.80;99.90
1079;DHT22;528;47.872;11.478;2022-09-01T11:47:18;20.90;99.90
1079;DHT22;528;47.872;11.478;2022-09-01T11:49:51;21.00;99.90
1079;DHT22;528;47.872;11.478;2022-09-01T11:52:20;21.10;99.90
1079;DHT22;528;47.872;11.478;2022-09-01T11:54:49;21.20;99.90
1079;DHT22;528;47.872;11.478;2022-09-01T11:57:28;21.20;99.90
1079;DHT22;528;47.872;11.478;2022-09-01T11:59:57;21.20;99.90
1079;DHT22;528;47.872;11.478;2022-09-01T12:02:26;21.10;99.90
1079;DHT22;528;47.872;11.478;2022-09-01T12:04:56;21.20;99.90
1079;DHT22;528;47.872;11.478;2022-09-01T12:07:38;21.20;99.90
1079;DHT22;528;47.872;11.478;2022-09-01T12:10:20;21.20;99.90
1079;DHT22;528;47.872;11.478;2022-09-01T12:12:48;21.10;99.90
1079;DHT22;528;47.872;11.478;2022-09-01T12:15:20;21.00;99.90
1079;DHT22;528;47.872;11.478;2022-09-01T12:17:49;20.90;99.90
1079;DHT22;528;47.872;11.478;2022-09-01T12:20:25;20.70;99.90
1079;DHT22;528;47.872;11.478;2022-09-01T12:22:53;20.80;99.90
1079;DHT22;528;47.872;11.478;2022-09-01T12:25:24;20.80;99.90
1079;DHT22;528;47.872;11.478;2022-09-01T12:27:52;20.90;99.90
1079;DHT22;528;47.872;11.478;2022-09-01T12:30:20;20.90;99.90
1079;DHT22;528;47.872;11.478;2022-09-01T12:32:48;20.80;99.90
1079;DHT22;528;47.872;11.478;2022-09-01T12:35:20;20.90;99.90
1079;DHT22;528;47.872;11.478;2022-09-01T12:37:48;20.90;99.90
1079;DHT22;528;47.872;11.478;2022-09-01T12:40:24;21.00;99.90
1079;DHT22;528;47.872;11.478;2022-09-01T12:42:52;21.10;99.90
1079;DHT22;528;47.872;11.478;2022-09-01T12:45:38;21.10;99.90
1079;DHT22;528;47.872;11.478;2022-09-01T12:48:06;21.10;99.90
1079;DHT22;528;47.872;11.478;2022-09-01T12:50:49;21.20;99.90
1079;DHT22;528;47.872;11.478;2022-09-01T12:53:22;21.30;99.90
1079;DHT22;528;47.872;11.478;2022-09-01T12:56:16;21.40;99.90
1079;DHT22;528;47.872;11.478;2022-09-01T12:58:48;21.40;99.90
1079;DHT22;528;47.872;11.478;2022-09-01T13:01:30;21.40;99.90
1079;DHT22;528;47.872;11.478;2022-09-01T13:04:28;21.40;99.90
1079;DHT22;528;47.872;11.478;2022-09-01T13:07:02;21.40;99.90
1079;DHT22;528;47.872;11.478;2022-09-01T13:09:29;21.30;99.90
1079;DHT22;528;47.872;11.478;2022-09-01T13:12:15;21.30;99.90
1079;DHT22;528;47.872;11.478;2022-09-01T13:14:42;21.30;99.90
1079;DHT22;528;47.872;11.478;2022-09-01T13:17:09;21.30;99.90
1079;DHT22;528;47.872;11.478;2022-09-01T13:19:37;21.30;99.90
1079;DHT22;528;47.872;11.478;2022-09-01T13:22:04;21.30;99.90
1079;DHT22;528;47.872;11.478;2022-09-01T13:24:31;21.40;99.90
1079;DHT22;528;47.872;11.478;2022-09-01T13:26:58;21.40;99.90
1079;DHT22;528;47.872;11.478;2022-09-01T13:29:27;21.40;99.90
1079;DHT22;528;47.872;11.478;2022-09-01T13:31:54;21.30;99.90
1079;DHT22;528;47.872;11.478;2022-09-01T13:34:21;21.30;99.90
1079;DHT22;528;47.872;11.478;2022-09-01T13:36:49;21.30;99.90
1079;DHT22;528;47.872;11.478;2022-09-01T13:39:16;21.30;99.90
1079;DHT22;528;47.872;11.478;2022-09-01T13:41:43;21.30;99.90
1079;DHT22;528;47.872;11.478;2022-09-01T13:44:11;21.40;99.90
1079;DHT22;528;47.872;11.478;2022-09-01T13:46:40;21.40;99.90
1079;DHT22;528;47.872;11.478;2022-09-01T13:49:07;21.40;99.90
1079;DHT22;528;47.872;11.478;2022-09-01T13:51:34;21.50;99.90
1079;DHT22;528;47.872;11.478;2022-09-01T13:54:02;21.50;99.90
1079;DHT22;528;47.872;11.478;2022-09-01T13:56:29;21.40;99.90
1079;DHT22;528;47.872;11.478;2022-09-01T13:58:56;21.50;99.90
1079;DHT22;528;47.872;11.478;2022-09-01T14:01:23;21.50;99.80
1079;DHT22;528;47.872;11.478;2022-09-01T14:03:52;21.50;99.90
1079;DHT22;528;47.872;11.478;2022-09-01T14:06:19;21.50;99.90
1079;DHT22;528;47.872;11.478;2022-09-01T14:08:46;21.60;99.90
1079;DHT22;528;47.872;11.478;2022-09-01T14:11:15;21.60;99.90
1079;DHT22;528;47.872;11.478;2022-09-01T14:13:45;21.70;99.90
1079;DHT22;528;47.872;11.478;2022-09-01T14:16:13;21.70;99.90
1079;DHT22;528;47.872;11.478;2022-09-01T14:18:41;21.60;99.90
1079;DHT22;528;47.872;11.478;2022-09-01T14:21:13;21.60;99.90
1079;DHT22;528;47.872;11.478;2022-09-01T14:23:40;21.40;99.90
1079;DHT22;528;47.872;11.478;2022-09-01T14:26:10;21.30;99.90
1079;DHT22;528;47.872;11.478;2022-09-01T14:28:38;21.20;99.90
1079;DHT22;528;47.872;11.478;2022-09-01T14:31:09;21.20;99.90
1079;DHT22;528;47.872;11.478;2022-09-01T14:33:38;21.20;99.90
1079;DHT22;528;47.872;11.478;2022-09-01T14:36:06;21.20;99.80
1079;DHT22;528;47.872;11.478;2022-09-01T14:38:35;21.20;99.40
1079;DHT22;528;47.872;11.478;2022-09-01T14:41:02;21.30;99.90
1079;DHT22;528;47.872;11.478;2022-09-01T14:43:29;21.30;99.90
1079;DHT22;528;47.872;11.478;2022-09-01T14:46:05;21.30;99.30
1079;DHT22;528;47.872;11.478;2022-09-01T14:48:36;21.30;99.90
1079;DHT22;528;47.872;11.478;2022-09-01T14:51:03;21.30;99.90
1079;DHT22;528;47.872;11.478;2022-09-01T14:53:31;21.40;99.90
1079;DHT22;528;47.872;11.478;2022-09-01T14:56:00;21.40;99.90
1079;DHT22;528;47.872;11.478;2022-09-01T14:58:28;21.30;99.50
1079;DHT22;528;47.872;11.478;2022-09-01T15:00:56;21.20;98.90
1079;DHT22;528;47.872;11.478;2022-09-01T15:03:24;21.20;99.00
1079;DHT22;528;47.872;11.478;2022-09-01T15:05:52;21.20;99.50
1079;DHT22;528;47.872;11.478;2022-09-01T15:08:20;21.10;99.90
1079;DHT22;528;47.872;11.478;2022-09-01T15:10:47;21.10;99.70
1079;DHT22;528;47.872;11.478;2022-09-01T15:13:16;21.00;99.90
1079;DHT22;528;47.872;11.478;2022-09-01T15:15:43;21.00;99.90
1079;DHT22;528;47.872;11.478;2022-09-01T15:18:10;21.10;99.90
1079;DHT22;528;47.872;11.478;2022-09-01T15:20:41;21.10;99.30
1079;DHT22;528;47.872;11.478;2022-09-01T15:23:12;21.10;99.70
1079;DHT22;528;47.872;11.478;2022-09-01T15:25:40;21.10;99.70
1079;DHT22;528;47.872;11.478;2022-09-01T15:28:07;21.10;99.90
1079;DHT22;528;47.872;11.478;2022-09-01T15:30:37;21.00;99.90
1079;DHT22;528;47.872;11.478;2022-09-01T15:33:05;21.00;99.90
1079;DHT22;528;47.872;11.478;2022-09-01T15:35:32;21.00;99.90
1079;DHT22;528;47.872;11.478;2022-09-01T15:38:00;20.90;99.90
1079;DHT22;528;47.872;11.478;2022-09-01T15:40:27;20.90;99.90
1079;DHT22;528;47.872;11.478;2022-09-01T15:42:55;20.90;99.90
1079;DHT22;528;47.872;11.478;2022-09-01T15:45:24;20.80;99.90
1079;DHT22;528;47.872;11.478;2022-09-01T15:47:53;20.80;99.90
1079;DHT22;528;47.872;11.478;2022-09-01T15:50:22;20.70;99.90
1079;DHT22;528;47.872;11.478;2022-09-01T15:52:52;20.70;99.90
1079;DHT22;528;47.872;11.478;2022-09-01T15:55:23;20.70;99.80
1079;DHT22;528;47.872;11.478;2022-09-01T15:57:50;20.70;98.20
1079;DHT22;528;47.872;11.478;2022-09-01T16:00:23;20.70;99.40
1079;DHT22;528;47.872;11.478;2022-09-01T16:02:53;20.70;99.70
1079;DHT22;528;47.872;11.478;2022-09-01T16:05:21;20.60;99.20
1079;DHT22;528;47.872;11.478;2022-09-01T16:07:50;20.70;98.40
1079;DHT22;528;47.872;11.478;2022-09-01T16:10:17;20.60;98.20
1079;DHT22;528;47.872;11.478;2022-09-01T16:12:44;20.60;98.40
1079;DHT22;528;47.872;11.478;2022-09-01T16:15:14;20.60;99.40
1079;DHT22;528;47.872;11.478;2022-09-01T16:17:50;20.60;99.30
1079;DHT22;528;47.872;11.478;2022-09-01T16:20:25;20.60;98.10
1079;DHT22;528;47.872;11.478;2022-09-01T16:22:55;20.60;98.30
1079;DHT22;528;47.872;11.478;2022-09-01T16:25:25;20.60;98.40
1079;DHT22;528;47.872;11.478;2022-09-01T16:27:55;20.60;98.80
1079;DHT22;528;47.872;11.478;2022-09-01T16:30:25;20.60;98.70
1079;DHT22;528;47.872;11.478;2022-09-01T16:32:56;20.60;98.20
1079;DHT22;528;47.872;11.478;2022-09-01T16:35:33;20.50;98.60
1079;DHT22;528;47.872;11.478;2022-09-01T16:38:08;20.50;98.70
1079;DHT22;528;47.872;11.478;2022-09-01T16:40:45;20.50;98.40
1079;DHT22;528;47.872;11.478;2022-09-01T16:43:17;20.50;98.30
1079;DHT22;528;47.872;11.478;2022-09-01T16:45:54;20.50;99.00
1079;DHT22;528;47.872;11.478;2022-09-01T16:48:29;20.50;99.80
1079;DHT22;528;47.872;11.478;2022-09-01T16:51:04;20.50;99.80
1079;DHT22;528;47.872;11.478;2022-09-01T16:53:49;20.50;99.90
1079;DHT22;528;47.872;11.478;2022-09-01T16:56:23;20.50;99.30
1079;DHT22;528;47.872;11.478;2022-09-01T16:58:58;20.50;99.90
1079;DHT22;528;47.872;11.478;2022-09-01T17:01:35;20.50;99.90
1079;DHT22;528;47.872;11.478;2022-09-01T17:04:21;20.40;99.90